sensor_id;sensor_type;location;lat;lon;timestamp;P1;durP1;ratioP1;P2;durP2;ratioP2
31660;SDS011;18267;52.234;7.444;2023-02-11T00:00:50;64.80;;;24.90;;
31660;SDS011;18267;52.234;7.444;2023-02-11T00:03:16;71.05;;;24.83;;
31660;SDS011;18267;52.234;7.444;2023-02-11T00:05:41;65.88;;;26.55;;
31660;SDS011;18267;52.234;7.444;2023-02-11T00:08:07;71.28;;;25.80;;
31660;SDS011;18267;52.234;7.444;2023-02-11T00:10:32;62.08;;;22.33;;
31660;SDS011;18267;52.234;7.444;2023-02-11T00:12:58;62.67;;;25.10;;
31660;SDS011;18267;52.234;7.444;2023-02-11T00:15:23;63.92;;;25.38;;
31660;SDS011;18267;52.234;7.444;2023-02-11T00:17:49;64.03;;;23.95;;
31660;SDS011;18267;52.234;7.444;2023-02-11T00:20:14;57.15;;;23.98;;
31660;SDS011;18267;52.234;7.444;2023-02-11T00:22:40;66.93;;;25.13;;
31660;SDS011;18267;52.234;7.444;2023-02-11T00:25:06;69.30;;;24.85;;
31660;SDS011;18267;52.234;7.444;2023-02-11T00:27:31;64.50;;;24.65;;
31660;SDS011;18267;52.234;7.444;2023-02-11T00:29:57;75.93;;;24.92;;
31660;SDS011;18267;52.234;7.444;2023-02-11T00:32:24;62.78;;;22.90;;
31660;SDS011;18267;52.234;7.444;2023-02-11T00:34:51;60.33;;;24.67;;
31660;SDS011;18267;52.234;7.444;2023-02-11T00:37:17;60.65;;;23.50;;
31660;SDS011;18267;52.234;7.444;2023-02-11T00:39:42;64.63;;;23.40;;
31660;SDS011;18267;52.234;7.444;2023-02-11T00:42:09;61.90;;;24.58;;
31660;SDS011;18267;52.234;7.444;2023-02-11T00:44:38;61.38;;;23.05;;
31660;SDS011;18267;52.234;7.444;2023-02-11T00:47:03;59.33;;;23.48;;
31660;SDS011;18267;52.234;7.444;2023-02-11T00:49:29;58.42;;;23.15;;
31660;SDS011;18267;52.234;7.444;2023-02-11T00:51:55;58.67;;;23.58;;
31660;SDS011;18267;52.234;7.444;2023-02-11T00:54:20;65.85;;;23.40;;
31660;SDS011;18267;52.234;7.444;2023-02-11T00:56:46;60.33;;;22.25;;
31660;SDS011;18267;52.234;7.444;2023-02-11T00:59:11;60.13;;;23.85;;
31660;SDS011;18267;52.234;7.444;2023-02-11T01:01:37;56.17;;;22.90;;
31660;SDS011;18267;52.234;7.444;2023-02-11T01:04:03;52.03;;;21.40;;
31660;SDS011;18267;52.234;7.444;2023-02-11T01:06:29;66.40;;;23.77;;
31660;SDS011;18267;52.234;7.444;2023-02-11T01:08:55;59.75;;;22.95;;
31660;SDS011;18267;52.234;7.444;2023-02-11T01:11:20;54.47;;;22.15;;
31660;SDS011;18267;52.234;7.444;2023-02-11T01:13:46;62.65;;;22.85;;
31660;SDS011;18267;52.234;7.444;2023-02-11T01:16:13;54.22;;;21.98;;
31660;SDS011;18267;52.234;7.444;2023-02-11T01:18:38;56.97;;;22.92;;
31660;SDS011;18267;52.234;7.444;2023-02-11T01:21:05;54.92;;;20.38;;
31660;SDS011;18267;52.234;7.444;2023-02-11T01:23:31;58.38;;;21.33;;
31660;SDS011;18267;52.234;7.444;2023-02-11T01:25:57;52.72;;;19.95;;
31660;SDS011;18267;52.234;7.444;2023-02-11T01:28:24;50.58;;;20.63;;
31660;SDS011;18267;52.234;7.444;2023-02-11T01:30:51;51.17;;;20.80;;
31660;SDS011;18267;52.234;7.444;2023-02-11T01:33:18;54.97;;;19.02;;
31660;SDS011;18267;52.234;7.444;2023-02-11T01:35:43;49.20;;;18.58;;
31660;SDS011;18267;52.234;7.444;2023-02-11T01:38:22;42.20;;;18.98;;
31660;SDS011;18267;52.234;7.444;2023-02-11T01:40:51;46.72;;;18.40;;
31660;SDS011;18267;52.234;7.444;2023-02-11T01:43:18;46.67;;;18.98;;
31660;SDS011;18267;52.234;7.444;2023-02-11T01:48:24;48.90;;;18.05;;
31660;SDS011;18267;52.234;7.444;2023-02-11T01:50:54;50.28;;;18.25;;
31660;SDS011;18267;52.234;7.444;2023-02-11T01:53:25;45.50;;;17.80;;
31660;SDS011;18267;52.234;7.444;2023-02-11T01:56:29;38.85;;;17.05;;
31660;SDS011;18267;52.234;7.444;2023-02-11T01:59:34;41.25;;;17.08;;
31660;SDS011;18267;52.234;7.444;2023-02-11T02:02:06;51.90;;;16.23;;
31660;SDS011;18267;52.234;7.444;2023-02-11T02:04:37;46.80;;;16.83;;
31660;SDS011;18267;52.234;7.444;2023-02-11T02:07:11;31.40;;;15.77;;
31660;SDS011;18267;52.234;7.444;2023-02-11T02:09:43;48.20;;;17.10;;
31660;SDS011;18267;52.234;7.444;2023-02-11T02:12:14;40.22;;;16.98;;
31660;SDS011;18267;52.234;7.444;2023-02-11T02:14:40;40.05;;;16.00;;
31660;SDS011;18267;52.234;7.444;2023-02-11T02:17:06;47.80;;;16.63;;
31660;SDS011;18267;52.234;7.444;2023-02-11T02:19:40;43.17;;;16.65;;
31660;SDS011;18267;52.234;7.444;2023-02-11T02:22:39;36.17;;;14.90;;
31660;SDS011;18267;52.234;7.444;2023-02-11T02:28:13;32.03;;;15.27;;
31660;SDS011;18267;52.234;7.444;2023-02-11T02:36:11;48.10;;;15.52;;
31660;SDS011;18267;52.234;7.444;2023-02-11T02:38:47;34.33;;;13.60;;
31660;SDS011;18267;52.234;7.444;2023-02-11T02:41:28;31.27;;;14.23;;
31660;SDS011;18267;52.234;7.444;2023-02-11T02:43:56;31.05;;;13.88;;
31660;SDS011;18267;52.234;7.444;2023-02-11T02:48:53;37.40;;;13.45;;
31660;SDS011;18267;52.234;7.444;2023-02-11T03:00:02;27.23;;;12.75;;
31660;SDS011;18267;52.234;7.444;2023-02-11T03:02:37;35.38;;;14.05;;
31660;SDS011;18267;52.234;7.444;2023-02-11T03:07:48;27.88;;;12.93;;
31660;SDS011;18267;52.234;7.444;2023-02-11T03:10:42;32.67;;;13.10;;
31660;SDS011;18267;52.234;7.444;2023-02-11T03:13:08;33.90;;;13.38;;
31660;SDS011;18267;52.234;7.444;2023-02-11T03:15:37;29.83;;;12.38;;
31660;SDS011;18267;52.234;7.444;2023-02-11T03:18:05;28.42;;;11.85;;
31660;SDS011;18267;52.234;7.444;2023-02-11T03:20:34;34.67;;;12.85;;
31660;SDS011;18267;52.234;7.444;2023-02-11T03:23:09;29.98;;;12.02;;
31660;SDS011;18267;52.234;7.444;2023-02-11T03:25:44;24.15;;;11.27;;
31660;SDS011;18267;52.234;7.444;2023-02-11T03:36:43;24.13;;;10.10;;
31660;SDS011;18267;52.234;7.444;2023-02-11T03:39:11;34.13;;;12.38;;
31660;SDS011;18267;52.234;7.444;2023-02-11T03:41:42;28.02;;;11.18;;
31660;SDS011;18267;52.234;7.444;2023-02-11T03:44:09;28.85;;;11.77;;
31660;SDS011;18267;52.234;7.444;2023-02-11T03:46:38;34.17;;;12.05;;
31660;SDS011;18267;52.234;7.444;2023-02-11T03:49:12;38.13;;;12.25;;
31660;SDS011;18267;52.234;7.444;2023-02-11T03:51:39;23.50;;;11.43;;
31660;SDS011;18267;52.234;7.444;2023-02-11T03:54:06;30.00;;;13.18;;
31660;SDS011;18267;52.234;7.444;2023-02-11T03:56:39;24.60;;;11.80;;
31660;SDS011;18267;52.234;7.444;2023-02-11T03:59:10;28.20;;;11.97;;
31660;SDS011;18267;52.234;7.444;2023-02-11T04:01:36;38.67;;;11.05;;
31660;SDS011;18267;52.234;7.444;2023-02-11T04:04:01;27.13;;;11.98;;
31660;SDS011;18267;52.234;7.444;2023-02-11T04:06:27;28.83;;;11.30;;
31660;SDS011;18267;52.234;7.444;2023-02-11T04:08:52;30.67;;;11.85;;
31660;SDS011;18267;52.234;7.444;2023-02-11T04:11:18;22.38;;;11.25;;
31660;SDS011;18267;52.234;7.444;2023-02-11T04:13:43;26.42;;;10.95;;
31660;SDS011;18267;52.234;7.444;2023-02-11T04:16:09;27.83;;;11.10;;
31660;SDS011;18267;52.234;7.444;2023-02-11T04:18:34;24.67;;;11.50;;
31660;SDS011;18267;52.234;7.444;2023-02-11T04:21:00;35.55;;;12.77;;
31660;SDS011;18267;52.234;7.444;2023-02-11T04:23:26;31.73;;;11.88;;
31660;SDS011;18267;52.234;7.444;2023-02-11T04:25:51;30.17;;;10.65;;
31660;SDS011;18267;52.234;7.444;2023-02-11T04:28:17;28.00;;;10.80;;
31660;SDS011;18267;52.234;7.444;2023-02-11T04:30:42;23.02;;;11.30;;
31660;SDS011;18267;52.234;7.444;2023-02-11T04:33:08;29.70;;;11.07;;
31660;SDS011;18267;52.234;7.444;2023-02-11T04:35:33;31.98;;;11.43;;
31660;SDS011;18267;52.234;7.444;2023-02-11T04:37:59;22.30;;;11.00;;
31660;SDS011;18267;52.234;7.444;2023-02-11T04:40:24;27.23;;;10.85;;
31660;SDS011;18267;52.234;7.444;2023-02-11T04:42:50;22.95;;;10.13;;
31660;SDS011;18267;52.234;7.444;2023-02-11T04:45:15;24.95;;;10.70;;
31660;SDS011;18267;52.234;7.444;2023-02-11T04:47:41;29.50;;;11.13;;
31660;SDS011;18267;52.234;7.444;2023-02-11T04:50:06;25.35;;;11.40;;
31660;SDS011;18267;52.234;7.444;2023-02-11T04:52:32;29.88;;;11.00;;
31660;SDS011;18267;52.234;7.444;2023-02-11T04:54:57;24.88;;;9.88;;
31660;SDS011;18267;52.234;7.444;2023-02-11T04:57:23;29.65;;;11.82;;
31660;SDS011;18267;52.234;7.444;2023-02-11T04:59:48;31.10;;;10.88;;
31660;SDS011;18267;52.234;7.444;2023-02-11T05:02:14;36.65;;;11.70;;
31660;SDS011;18267;52.234;7.444;2023-02-11T05:04:39;31.90;;;11.23;;
31660;SDS011;18267;52.234;7.444;2023-02-11T05:07:05;24.42;;;10.73;;
31660;SDS011;18267;52.234;7.444;2023-02-11T05:09:30;27.58;;;10.63;;
31660;SDS011;18267;52.234;7.444;2023-02-11T05:11:56;32.38;;;11.10;;
31660;SDS011;18267;52.234;7.444;2023-02-11T05:14:22;31.98;;;12.38;;
31660;SDS011;18267;52.234;7.444;2023-02-11T05:16:47;22.05;;;10.25;;
31660;SDS011;18267;52.234;7.444;2023-02-11T05:19:13;22.00;;;10.60;;
31660;SDS011;18267;52.234;7.444;2023-02-11T05:21:38;22.77;;;10.70;;
31660;SDS011;18267;52.234;7.444;2023-02-11T05:24:04;23.33;;;11.40;;
31660;SDS011;18267;52.234;7.444;2023-02-11T05:26:30;40.72;;;11.32;;
31660;SDS011;18267;52.234;7.444;2023-02-11T05:28:56;25.23;;;10.38;;
31660;SDS011;18267;52.234;7.444;2023-02-11T05:31:22;36.85;;;11.65;;
31660;SDS011;18267;52.234;7.444;2023-02-11T05:33:47;28.58;;;11.02;;
31660;SDS011;18267;52.234;7.444;2023-02-11T05:36:13;28.58;;;11.48;;
31660;SDS011;18267;52.234;7.444;2023-02-11T05:38:38;23.98;;;10.52;;
31660;SDS011;18267;52.234;7.444;2023-02-11T05:41:05;30.13;;;10.55;;
31660;SDS011;18267;52.234;7.444;2023-02-11T05:43:31;27.23;;;10.98;;
31660;SDS011;18267;52.234;7.444;2023-02-11T05:45:56;29.38;;;12.80;;
31660;SDS011;18267;52.234;7.444;2023-02-11T05:48:22;27.85;;;10.80;;
31660;SDS011;18267;52.234;7.444;2023-02-11T05:50:47;26.27;;;10.82;;
31660;SDS011;18267;52.234;7.444;2023-02-11T05:53:13;35.20;;;11.75;;
31660;SDS011;18267;52.234;7.444;2023-02-11T05:55:38;30.00;;;11.63;;
31660;SDS011;18267;52.234;7.444;2023-02-11T05:58:05;33.97;;;12.40;;
31660;SDS011;18267;52.234;7.444;2023-02-11T06:00:31;31.00;;;11.75;;
31660;SDS011;18267;52.234;7.444;2023-02-11T06:02:58;27.45;;;12.00;;
31660;SDS011;18267;52.234;7.444;2023-02-11T06:05:23;40.47;;;12.48;;
31660;SDS011;18267;52.234;7.444;2023-02-11T06:07:49;38.95;;;13.25;;
31660;SDS011;18267;52.234;7.444;2023-02-11T06:10:15;32.10;;;12.40;;
31660;SDS011;18267;52.234;7.444;2023-02-11T06:12:40;35.83;;;11.95;;
31660;SDS011;18267;52.234;7.444;2023-02-11T06:15:06;35.13;;;12.52;;
31660;SDS011;18267;52.234;7.444;2023-02-11T06:17:32;38.65;;;12.38;;
31660;SDS011;18267;52.234;7.444;2023-02-11T06:20:01;39.10;;;12.23;;
31660;SDS011;18267;52.234;7.444;2023-02-11T06:22:28;41.38;;;12.88;;
31660;SDS011;18267;52.234;7.444;2023-02-11T06:24:54;35.88;;;12.23;;
31660;SDS011;18267;52.234;7.444;2023-02-11T06:27:20;32.30;;;11.43;;
31660;SDS011;18267;52.234;7.444;2023-02-11T06:29:45;36.83;;;12.70;;
31660;SDS011;18267;52.234;7.444;2023-02-11T06:32:11;35.63;;;12.77;;
31660;SDS011;18267;52.234;7.444;2023-02-11T06:34:38;36.67;;;12.80;;
31660;SDS011;18267;52.234;7.444;2023-02-11T06:37:03;35.08;;;12.50;;
31660;SDS011;18267;52.234;7.444;2023-02-11T06:39:29;34.70;;;13.32;;
31660;SDS011;18267;52.234;7.444;2023-02-11T06:41:55;33.92;;;13.25;;
31660;SDS011;18267;52.234;7.444;2023-02-11T06:44:20;35.47;;;12.88;;
31660;SDS011;18267;52.234;7.444;2023-02-11T06:46:46;30.00;;;11.73;;
31660;SDS011;18267;52.234;7.444;2023-02-11T06:49:12;31.70;;;10.95;;
31660;SDS011;18267;52.234;7.444;2023-02-11T06:51:37;31.02;;;12.55;;
31660;SDS011;18267;52.234;7.444;2023-02-11T06:54:03;34.03;;;13.77;;
31660;SDS011;18267;52.234;7.444;2023-02-11T06:56:29;37.45;;;13.45;;
31660;SDS011;18267;52.234;7.444;2023-02-11T06:58:55;36.75;;;13.32;;
31660;SDS011;18267;52.234;7.444;2023-02-11T07:01:21;29.23;;;11.93;;
31660;SDS011;18267;52.234;7.444;2023-02-11T07:03:47;38.70;;;13.48;;
31660;SDS011;18267;52.234;7.444;2023-02-11T07:06:14;41.92;;;13.02;;
31660;SDS011;18267;52.234;7.444;2023-02-11T07:08:43;43.88;;;13.40;;
31660;SDS011;18267;52.234;7.444;2023-02-11T07:11:16;39.35;;;13.07;;
31660;SDS011;18267;52.234;7.444;2023-02-11T07:13:49;29.60;;;13.30;;
31660;SDS011;18267;52.234;7.444;2023-02-11T07:16:16;28.83;;;13.27;;
31660;SDS011;18267;52.234;7.444;2023-02-11T07:18:43;39.80;;;13.13;;
31660;SDS011;18267;52.234;7.444;2023-02-11T07:21:10;38.72;;;13.75;;
31660;SDS011;18267;52.234;7.444;2023-02-11T07:23:37;42.25;;;14.02;;
31660;SDS011;18267;52.234;7.444;2023-02-11T07:26:05;38.60;;;13.65;;
31660;SDS011;18267;52.234;7.444;2023-02-11T07:28:32;39.50;;;14.55;;
31660;SDS011;18267;52.234;7.444;2023-02-11T07:31:04;42.08;;;15.40;;
31660;SDS011;18267;52.234;7.444;2023-02-11T07:33:34;45.45;;;15.43;;
31660;SDS011;18267;52.234;7.444;2023-02-11T07:36:00;39.65;;;15.35;;
31660;SDS011;18267;52.234;7.444;2023-02-11T07:38:27;42.20;;;15.95;;
31660;SDS011;18267;52.234;7.444;2023-02-11T07:40:52;40.90;;;15.98;;
31660;SDS011;18267;52.234;7.444;2023-02-11T07:43:18;42.47;;;16.02;;
31660;SDS011;18267;52.234;7.444;2023-02-11T07:45:43;40.67;;;15.57;;
31660;SDS011;18267;52.234;7.444;2023-02-11T07:48:09;51.50;;;15.50;;
31660;SDS011;18267;52.234;7.444;2023-02-11T07:50:34;48.17;;;15.45;;
31660;SDS011;18267;52.234;7.444;2023-02-11T07:53:00;41.25;;;15.23;;
31660;SDS011;18267;52.234;7.444;2023-02-11T07:55:26;45.50;;;15.57;;
31660;SDS011;18267;52.234;7.444;2023-02-11T07:57:52;47.80;;;16.05;;
31660;SDS011;18267;52.234;7.444;2023-02-11T08:00:17;39.70;;;16.73;;
31660;SDS011;18267;52.234;7.444;2023-02-11T08:02:43;45.67;;;16.15;;
31660;SDS011;18267;52.234;7.444;2023-02-11T08:05:08;55.40;;;16.88;;
31660;SDS011;18267;52.234;7.444;2023-02-11T08:07:35;44.20;;;16.00;;
31660;SDS011;18267;52.234;7.444;2023-02-11T08:10:00;41.22;;;16.58;;
31660;SDS011;18267;52.234;7.444;2023-02-11T08:12:26;46.65;;;16.90;;
31660;SDS011;18267;52.234;7.444;2023-02-11T08:14:51;46.38;;;15.90;;
31660;SDS011;18267;52.234;7.444;2023-02-11T08:17:17;45.47;;;17.70;;
31660;SDS011;18267;52.234;7.444;2023-02-11T08:19:42;38.30;;;16.52;;
31660;SDS011;18267;52.234;7.444;2023-02-11T08:22:08;49.95;;;17.77;;
31660;SDS011;18267;52.234;7.444;2023-02-11T08:24:34;56.58;;;17.70;;
31660;SDS011;18267;52.234;7.444;2023-02-11T08:26:59;48.38;;;17.42;;
31660;SDS011;18267;52.234;7.444;2023-02-11T08:29:25;40.47;;;16.98;;
31660;SDS011;18267;52.234;7.444;2023-02-11T08:31:50;48.72;;;18.30;;
31660;SDS011;18267;52.234;7.444;2023-02-11T08:34:16;49.03;;;17.80;;
31660;SDS011;18267;52.234;7.444;2023-02-11T08:36:45;49.70;;;18.25;;
31660;SDS011;18267;52.234;7.444;2023-02-11T08:39:16;48.70;;;18.08;;
31660;SDS011;18267;52.234;7.444;2023-02-11T08:41:44;52.90;;;17.88;;
31660;SDS011;18267;52.234;7.444;2023-02-11T08:44:12;49.78;;;18.42;;
31660;SDS011;18267;52.234;7.444;2023-02-11T08:46:38;40.53;;;17.35;;
31660;SDS011;18267;52.234;7.444;2023-02-11T08:49:03;52.85;;;18.95;;
31660;SDS011;18267;52.234;7.444;2023-02-11T08:51:29;57.42;;;18.63;;
31660;SDS011;18267;52.234;7.444;2023-02-11T08:53:55;42.30;;;17.15;;
31660;SDS011;18267;52.234;7.444;2023-02-11T08:56:21;58.97;;;17.85;;
31660;SDS011;18267;52.234;7.444;2023-02-11T08:58:47;56.08;;;17.45;;
31660;SDS011;18267;52.234;7.444;2023-02-11T09:01:24;49.17;;;18.35;;
31660;SDS011;18267;52.234;7.444;2023-02-11T09:03:51;51.85;;;18.15;;
31660;SDS011;18267;52.234;7.444;2023-02-11T09:06:18;58.90;;;18.30;;
31660;SDS011;18267;52.234;7.444;2023-02-11T09:08:45;54.00;;;18.65;;
31660;SDS011;18267;52.234;7.444;2023-02-11T09:11:13;58.67;;;20.73;;
31660;SDS011;18267;52.234;7.444;2023-02-11T09:13:40;54.03;;;17.67;;
31660;SDS011;18267;52.234;7.444;2023-02-11T09:16:07;53.97;;;20.55;;
31660;SDS011;18267;52.234;7.444;2023-02-11T09:18:33;49.05;;;19.88;;
31660;SDS011;18267;52.234;7.444;2023-02-11T09:21:05;55.75;;;19.73;;
31660;SDS011;18267;52.234;7.444;2023-02-11T09:23:32;50.35;;;17.92;;
31660;SDS011;18267;52.234;7.444;2023-02-11T09:26:09;52.40;;;19.05;;
31660;SDS011;18267;52.234;7.444;2023-02-11T09:28:37;55.42;;;19.45;;
31660;SDS011;18267;52.234;7.444;2023-02-11T09:31:06;49.67;;;18.65;;
31660;SDS011;18267;52.234;7.444;2023-02-11T09:33:32;48.50;;;19.10;;
31660;SDS011;18267;52.234;7.444;2023-02-11T09:36:02;50.00;;;19.67;;
31660;SDS011;18267;52.234;7.444;2023-02-11T09:38:29;50.30;;;19.83;;
31660;SDS011;18267;52.234;7.444;2023-02-11T09:40:55;51.50;;;20.10;;
31660;SDS011;18267;52.234;7.444;2023-02-11T09:43:21;58.83;;;20.88;;
31660;SDS011;18267;52.234;7.444;2023-02-11T09:45:53;50.67;;;20.30;;
31660;SDS011;18267;52.234;7.444;2023-02-11T09:48:20;60.38;;;19.95;;
31660;SDS011;18267;52.234;7.444;2023-02-11T09:50:51;47.65;;;19.55;;
31660;SDS011;18267;52.234;7.444;2023-02-11T09:53:22;47.72;;;19.00;;
31660;SDS011;18267;52.234;7.444;2023-02-11T09:55:48;59.45;;;20.50;;
31660;SDS011;18267;52.234;7.444;2023-02-11T09:58:26;52.22;;;19.73;;
31660;SDS011;18267;52.234;7.444;2023-02-11T10:03:59;50.55;;;19.95;;
31660;SDS011;18267;52.234;7.444;2023-02-11T10:14:44;54.70;;;18.67;;
31660;SDS011;18267;52.234;7.444;2023-02-11T10:22:44;46.72;;;19.13;;
31660;SDS011;18267;52.234;7.444;2023-02-11T10:27:42;57.33;;;19.48;;
31660;SDS011;18267;52.234;7.444;2023-02-11T10:33:42;59.63;;;21.40;;
31660;SDS011;18267;52.234;7.444;2023-02-11T10:35:56;56.08;;;20.42;;
31660;SDS011;18267;52.234;7.444;2023-02-11T10:38:22;54.42;;;20.80;;
31660;SDS011;18267;52.234;7.444;2023-02-11T10:40:49;54.47;;;21.23;;
31660;SDS011;18267;52.234;7.444;2023-02-11T10:43:15;51.45;;;20.10;;
31660;SDS011;18267;52.234;7.444;2023-02-11T10:45:49;50.55;;;20.38;;
31660;SDS011;18267;52.234;7.444;2023-02-11T10:48:39;49.33;;;19.88;;
31660;SDS011;18267;52.234;7.444;2023-02-11T10:53:35;48.83;;;19.52;;
31660;SDS011;18267;52.234;7.444;2023-02-11T10:56:01;52.97;;;20.60;;
31660;SDS011;18267;52.234;7.444;2023-02-11T10:58:30;55.47;;;21.15;;
31660;SDS011;18267;52.234;7.444;2023-02-11T11:01:03;59.88;;;20.10;;
31660;SDS011;18267;52.234;7.444;2023-02-11T11:03:31;57.53;;;20.35;;
31660;SDS011;18267;52.234;7.444;2023-02-11T11:06:00;53.45;;;20.75;;
31660;SDS011;18267;52.234;7.444;2023-02-11T11:08:44;43.78;;;19.75;;
31660;SDS011;18267;52.234;7.444;2023-02-11T11:11:18;54.33;;;20.30;;
31660;SDS011;18267;52.234;7.444;2023-02-11T11:13:53;52.17;;;19.90;;
31660;SDS011;18267;52.234;7.444;2023-02-11T11:19:13;52.88;;;20.20;;
31660;SDS011;18267;52.234;7.444;2023-02-11T11:21:48;53.65;;;19.55;;
31660;SDS011;18267;52.234;7.444;2023-02-11T11:24:19;49.72;;;19.30;;
31660;SDS011;18267;52.234;7.444;2023-02-11T11:26:54;63.72;;;21.90;;
31660;SDS011;18267;52.234;7.444;2023-02-11T11:31:58;56.20;;;21.20;;
31660;SDS011;18267;52.234;7.444;2023-02-11T11:34:36;54.15;;;21.35;;
31660;SDS011;18267;52.234;7.444;2023-02-11T11:37:11;49.25;;;19.40;;
31660;SDS011;18267;52.234;7.444;2023-02-11T11:39:45;46.15;;;18.90;;
31660;SDS011;18267;52.234;7.444;2023-02-11T11:42:24;55.17;;;20.70;;
31660;SDS011;18267;52.234;7.444;2023-02-11T11:44:59;49.53;;;19.98;;
31660;SDS011;18267;52.234;7.444;2023-02-11T11:47:53;57.88;;;20.33;;
31660;SDS011;18267;52.234;7.444;2023-02-11T11:50:43;55.42;;;21.85;;
31660;SDS011;18267;52.234;7.444;2023-02-11T11:53:13;46.03;;;20.58;;
31660;SDS011;18267;52.234;7.444;2023-02-11T11:55:44;50.10;;;20.23;;
31660;SDS011;18267;52.234;7.444;2023-02-11T11:58:23;52.83;;;20.70;;
31660;SDS011;18267;52.234;7.444;2023-02-11T12:00:53;45.13;;;19.35;;
31660;SDS011;18267;52.234;7.444;2023-02-11T12:13:52;61.40;;;21.13;;
31660;SDS011;18267;52.234;7.444;2023-02-11T12:16:32;45.92;;;19.85;;
31660;SDS011;18267;52.234;7.444;2023-02-11T12:19:18;49.17;;;18.33;;
31660;SDS011;18267;52.234;7.444;2023-02-11T12:22:11;48.78;;;19.13;;
31660;SDS011;18267;52.234;7.444;2023-02-11T12:27:54;48.72;;;18.55;;
31660;SDS011;18267;52.234;7.444;2023-02-11T12:38:15;49.65;;;20.70;;
31660;SDS011;18267;52.234;7.444;2023-02-11T12:40:53;51.00;;;18.38;;
31660;SDS011;18267;52.234;7.444;2023-02-11T12:43:35;43.65;;;18.08;;
31660;SDS011;18267;52.234;7.444;2023-02-11T12:57:43;43.65;;;17.88;;
31660;SDS011;18267;52.234;7.444;2023-02-11T13:00:14;41.08;;;17.92;;
31660;SDS011;18267;52.234;7.444;2023-02-11T13:02:46;43.40;;;17.35;;
31660;SDS011;18267;52.234;7.444;2023-02-11T13:05:26;33.55;;;16.80;;
31660;SDS011;18267;52.234;7.444;2023-02-11T13:08:13;39.60;;;16.88;;
31660;SDS011;18267;52.234;7.444;2023-02-11T13:10:46;45.22;;;17.95;;
31660;SDS011;18267;52.234;7.444;2023-02-11T13:13:24;37.33;;;17.65;;
31660;SDS011;18267;52.234;7.444;2023-02-11T13:16:00;45.70;;;17.55;;
31660;SDS011;18267;52.234;7.444;2023-02-11T13:26:18;40.03;;;17.75;;
31660;SDS011;18267;52.234;7.444;2023-02-11T13:28:47;31.63;;;15.75;;
31660;SDS011;18267;52.234;7.444;2023-02-11T13:31:21;39.70;;;16.85;;
31660;SDS011;18267;52.234;7.444;2023-02-11T13:33:50;32.28;;;15.18;;
31660;SDS011;18267;52.234;7.444;2023-02-11T13:36:23;30.10;;;15.45;;
31660;SDS011;18267;52.234;7.444;2023-02-11T13:38:51;35.30;;;15.73;;
31660;SDS011;18267;52.234;7.444;2023-02-11T13:41:24;33.85;;;15.73;;
31660;SDS011;18267;52.234;7.444;2023-02-11T13:44:00;33.58;;;16.13;;
31660;SDS011;18267;52.234;7.444;2023-02-11T13:46:51;34.97;;;16.45;;
31660;SDS011;18267;52.234;7.444;2023-02-11T13:49:48;37.58;;;16.13;;
31660;SDS011;18267;52.234;7.444;2023-02-11T13:52:16;40.00;;;15.15;;
31660;SDS011;18267;52.234;7.444;2023-02-11T13:54:47;33.55;;;15.05;;
31660;SDS011;18267;52.234;7.444;2023-02-11T13:59:45;36.55;;;16.42;;
31660;SDS011;18267;52.234;7.444;2023-02-11T14:10:50;34.42;;;15.57;;
31660;SDS011;18267;52.234;7.444;2023-02-11T14:15:48;34.67;;;15.75;;
31660;SDS011;18267;52.234;7.444;2023-02-11T14:21:08;27.83;;;15.57;;
31660;SDS011;18267;52.234;7.444;2023-02-11T14:23:47;32.17;;;15.93;;
31660;SDS011;18267;52.234;7.444;2023-02-11T14:28:39;43.85;;;15.85;;
31660;SDS011;18267;52.234;7.444;2023-02-11T14:31:09;38.67;;;15.73;;
31660;SDS011;18267;52.234;7.444;2023-02-11T14:40:06;33.78;;;15.85;;
31660;SDS011;18267;52.234;7.444;2023-02-11T14:42:43;33.77;;;16.27;;
31660;SDS011;18267;52.234;7.444;2023-02-11T14:45:10;31.88;;;15.80;;
31660;SDS011;18267;52.234;7.444;2023-02-11T14:47:47;33.63;;;15.93;;
31660;SDS011;18267;52.234;7.444;2023-02-11T14:50:25;33.63;;;16.48;;
31660;SDS011;18267;52.234;7.444;2023-02-11T14:53:12;35.78;;;15.18;;
31660;SDS011;18267;52.234;7.444;2023-02-11T14:55:41;35.55;;;16.73;;
31660;SDS011;18267;52.234;7.444;2023-02-11T14:58:14;33.55;;;16.15;;
31660;SDS011;18267;52.234;7.444;2023-02-11T15:03:31;27.70;;;14.02;;
31660;SDS011;18267;52.234;7.444;2023-02-11T15:05:58;30.27;;;16.58;;
31660;SDS011;18267;52.234;7.444;2023-02-11T15:08:29;35.45;;;16.58;;
31660;SDS011;18267;52.234;7.444;2023-02-11T15:10:56;35.17;;;15.77;;
31660;SDS011;18267;52.234;7.444;2023-02-11T15:13:24;33.95;;;15.80;;
31660;SDS011;18267;52.234;7.444;2023-02-11T15:15:56;30.38;;;16.13;;
31660;SDS011;18267;52.234;7.444;2023-02-11T15:18:33;34.28;;;14.82;;
31660;SDS011;18267;52.234;7.444;2023-02-11T15:21:04;38.05;;;15.52;;
31660;SDS011;18267;52.234;7.444;2023-02-11T15:23:31;34.88;;;15.80;;
31660;SDS011;18267;52.234;7.444;2023-02-11T15:25:57;34.70;;;15.70;;
31660;SDS011;18267;52.234;7.444;2023-02-11T15:28:31;37.05;;;14.90;;
31660;SDS011;18267;52.234;7.444;2023-02-11T15:30:59;38.60;;;15.10;;
31660;SDS011;18267;52.234;7.444;2023-02-11T15:33:27;36.25;;;15.90;;
31660;SDS011;18267;52.234;7.444;2023-02-11T15:35:57;36.35;;;15.40;;
31660;SDS011;18267;52.234;7.444;2023-02-11T15:38:26;31.25;;;14.68;;
31660;SDS011;18267;52.234;7.444;2023-02-11T15:41:00;28.95;;;14.30;;
31660;SDS011;18267;52.234;7.444;2023-02-11T15:43:44;26.08;;;13.00;;
31660;SDS011;18267;52.234;7.444;2023-02-11T15:46:14;26.38;;;13.73;;
31660;SDS011;18267;52.234;7.444;2023-02-11T15:48:43;32.47;;;13.65;;
31660;SDS011;18267;52.234;7.444;2023-02-11T15:51:16;28.35;;;12.65;;
31660;SDS011;18267;52.234;7.444;2023-02-11T15:53:46;26.85;;;12.77;;
31660;SDS011;18267;52.234;7.444;2023-02-11T15:56:21;27.15;;;13.23;;
31660;SDS011;18267;52.234;7.444;2023-02-11T15:58:50;28.67;;;14.63;;
31660;SDS011;18267;52.234;7.444;2023-02-11T16:01:26;29.23;;;13.52;;
31660;SDS011;18267;52.234;7.444;2023-02-11T16:03:57;31.35;;;15.15;;
31660;SDS011;18267;52.234;7.444;2023-02-11T16:06:24;28.20;;;14.27;;
31660;SDS011;18267;52.234;7.444;2023-02-11T16:08:57;31.35;;;14.52;;
31660;SDS011;18267;52.234;7.444;2023-02-11T16:11:26;36.38;;;15.48;;
31660;SDS011;18267;52.234;7.444;2023-02-11T16:13:55;38.70;;;14.57;;
31660;SDS011;18267;52.234;7.444;2023-02-11T16:16:25;39.17;;;14.65;;
31660;SDS011;18267;52.234;7.444;2023-02-11T16:18:56;31.88;;;14.45;;
31660;SDS011;18267;52.234;7.444;2023-02-11T16:21:28;28.02;;;13.50;;
31660;SDS011;18267;52.234;7.444;2023-02-11T16:24:03;32.85;;;13.82;;
31660;SDS011;18267;52.234;7.444;2023-02-11T16:26:45;28.98;;;13.68;;
31660;SDS011;18267;52.234;7.444;2023-02-11T16:29:18;32.63;;;13.68;;
31660;SDS011;18267;52.234;7.444;2023-02-11T16:31:48;23.35;;;12.80;;
31660;SDS011;18267;52.234;7.444;2023-02-11T16:34:18;27.80;;;14.40;;
31660;SDS011;18267;52.234;7.444;2023-02-11T16:36:47;31.25;;;14.77;;
31660;SDS011;18267;52.234;7.444;2023-02-11T16:39:13;30.05;;;14.05;;
31660;SDS011;18267;52.234;7.444;2023-02-11T16:41:40;34.85;;;14.52;;
31660;SDS011;18267;52.234;7.444;2023-02-11T16:44:07;33.63;;;15.43;;
31660;SDS011;18267;52.234;7.444;2023-02-11T16:46:33;23.63;;;12.70;;